createdAt,value
2019-06-01T00:00:10.852Z,15.00
2019-06-01T00:01:07.242Z,18.00
2019-06-01T00:02:15.917Z,15.00
2019-06-01T00:03:24.248Z,16.25
2019-06-01T00:04:28.328Z,16.00
2019-06-01T00:05:38.432Z,14.25
2019-06-01T00:06:42.853Z,18.75
2019-06-01T00:07:49.830Z,14.00
2019-06-01T00:08:52.624Z,16.25
2019-06-01T00:10:00.880Z,17.00
2019-06-01T00:11:03.777Z,16.75
2019-06-01T00:12:07.506Z,15.00
2019-06-01T00:13:13.678Z,15.50
2019-06-01T00:14:19.854Z,16.75
2019-06-01T00:15:22.891Z,15.25
2019-06-01T00:16:26.349Z,17.00
2019-06-01T00:17:30.054Z,15.50
2019-06-01T00:18:36.482Z,17.00
2019-06-01T00:19:41.993Z,14.75
2019-06-01T00:20:48.412Z,15.25
2019-06-01T00:21:54.326Z,15.00
2019-06-01T00:22:59.447Z,15.75
2019-06-01T00:24:02.640Z,17.00
2019-06-01T00:25:06.191Z,16.25
2019-06-01T00:26:16.117Z,17.25
2019-06-01T00:27:19.892Z,15.75
2019-06-01T00:28:23.655Z,17.25
2019-06-01T00:29:30.180Z,17.00
2019-06-01T00:30:33.324Z,15.75
2019-06-01T00:31:36.964Z,18.25
2019-06-01T00:32:41.470Z,13.50
2019-06-01T00:33:49.509Z,17.00
2019-06-01T00:34:52.428Z,15.00
2019-06-01T00:35:55.866Z,17.00
2019-06-01T00:36:58.934Z,17.00
2019-06-01T00:38:02.417Z,14.50
2019-06-01T00:39:05.313Z,19.00
2019-06-01T00:40:09.257Z,15.00
2019-06-01T00:41:12.144Z,18.00
2019-06-01T00:42:17.750Z,17.25
2019-06-01T00:43:21.297Z,14.50
2019-06-01T00:44:24.693Z,14.00
2019-06-01T00:45:27.521Z,17.25
2019-06-01T00:46:31.420Z,14.50
2019-06-01T00:47:40.141Z,14.00
2019-06-01T00:48:55.699Z,13.25
2019-06-01T00:49:58.543Z,13.00
2019-06-01T00:51:11.114Z,14.00
2019-06-01T00:52:14.005Z,15.75
2019-06-01T00:53:17.420Z,15.00
2019-06-01T00:54:23.258Z,13.50
2019-06-01T00:55:28.662Z,13.75
2019-06-01T00:56:32.846Z,14.25
2019-06-01T00:57:36.328Z,16.00
2019-06-01T00:58:39.203Z,15.25
2019-06-01T00:59:45.912Z,14.25
2019-06-01T01:00:49.407Z,16.75
2019-06-01T01:01:56.893Z,14.00
2019-06-01T01:02:59.794Z,13.75
2019-06-01T01:04:03.183Z,13.25
2019-06-01T01:05:06.087Z,13.50
2019-06-01T01:06:09.960Z,16.75
2019-06-01T01:07:12.781Z,15.25
2019-06-01T01:08:16.560Z,16.00
2019-06-01T01:09:24.920Z,16.75
2019-06-01T01:10:28.318Z,15.75
2019-06-01T01:11:34.128Z,16.75
2019-06-01T01:12:55.735Z,16.50
2019-06-01T01:13:58.815Z,17.00
2019-06-01T01:15:02.629Z,15.50
2019-06-01T01:16:05.574Z,15.00
2019-06-01T01:17:09.016Z,16.25
2019-06-01T01:18:11.842Z,13.75
2019-06-01T01:19:15.346Z,18.50
2019-06-01T01:20:18.538Z,17.00
2019-06-01T01:21:24.572Z,15.75
2019-06-01T01:22:39.540Z,13.25
2019-06-01T01:23:46.214Z,17.25
2019-06-01T01:24:50.404Z,13.25
2019-06-01T01:25:54.583Z,16.00
2019-06-01T01:26:57.787Z,17.25
2019-06-01T01:28:01.229Z,15.75
2019-06-01T01:29:04.700Z,15.50
2019-06-01T01:30:08.110Z,15.75
2019-06-01T01:31:14.201Z,17.25
2019-06-01T01:32:15.891Z,18.00
2019-06-01T01:33:19.108Z,17.50
2019-06-01T01:34:25.031Z,17.00
2019-06-01T01:35:33.955Z,17.50
2019-06-01T01:36:37.459Z,16.00
2019-06-01T01:37:43.586Z,15.75
2019-06-01T01:38:52.064Z,15.75
2019-06-01T01:39:56.279Z,16.75
2019-06-01T01:40:59.840Z,14.00
2019-06-01T01:42:02.676Z,16.50
2019-06-01T01:43:11.664Z,15.50
2019-06-01T01:44:17.367Z,14.50
2019-06-01T01:45:23.528Z,15.50
2019-06-01T01:46:26.602Z,17.00
2019-06-01T01:47:35.814Z,13.00
2019-06-01T01:48:38.344Z,15.25
2019-06-01T01:49:44.948Z,17.00
2019-06-01T01:50:47.743Z,18.00
2019-06-01T01:51:52.719Z,13.00
2019-06-01T01:52:56.903Z,15.50
2019-06-01T01:54:00.545Z,17.00
2019-06-01T01:55:03.426Z,14.25
2019-06-01T01:56:19.215Z,18.00
2019-06-01T01:57:22.011Z,13.00
2019-06-01T01:58:25.734Z,13.75
2019-06-01T01:59:29.016Z,18.25
2019-06-01T02:00:32.409Z,13.75
2019-06-01T02:01:35.279Z,14.00
2019-06-01T02:02:39.083Z,13.75
2019-06-01T02:03:42.387Z,16.00
2019-06-01T02:04:45.910Z,16.00
2019-06-01T02:05:50.775Z,13.50
2019-06-01T02:06:55.904Z,14.75
2019-06-01T02:08:00.121Z,19.00
2019-06-01T02:09:04.120Z,16.00
2019-06-01T02:10:08.208Z,19.25
2019-06-01T02:11:11.597Z,14.25
2019-06-01T02:12:14.776Z,18.50
2019-06-01T02:13:18.182Z,18.25
2019-06-01T02:14:20.972Z,17.75
2019-06-01T02:15:24.450Z,16.00
2019-06-01T02:16:27.276Z,18.25
2019-06-01T02:17:30.668Z,17.00
2019-06-01T02:18:33.535Z,17.00
2019-06-01T02:19:36.995Z,16.00
2019-06-01T02:20:39.785Z,16.00
2019-06-01T02:21:43.159Z,18.25
2019-06-01T02:22:45.959Z,13.75
2019-06-01T02:23:49.772Z,16.00
2019-06-01T02:24:53.742Z,15.25
2019-06-01T02:25:57.273Z,14.00
2019-06-01T02:27:01.272Z,18.25
2019-06-01T02:28:04.874Z,17.75
2019-06-01T02:29:10.014Z,15.50
2019-06-01T02:30:13.710Z,16.75
2019-06-01T02:31:16.526Z,15.50
2019-06-01T02:32:20.002Z,15.75
2019-06-01T02:33:22.873Z,16.25
2019-06-01T02:34:26.272Z,14.75
2019-06-01T02:35:29.462Z,17.00
2019-06-01T02:36:33.254Z,16.00
2019-06-01T02:37:36.080Z,14.50
2019-06-01T02:38:42.638Z,14.00
2019-06-01T02:39:45.454Z,13.00
2019-06-01T02:40:48.858Z,15.50
2019-06-01T02:41:51.695Z,17.25
2019-06-01T02:42:56.966Z,17.50
2019-06-01T02:44:01.652Z,17.75
2019-06-01T02:45:05.794Z,19.00
2019-06-01T02:46:08.723Z,14.75
2019-06-01T02:47:12.618Z,16.00
2019-06-01T02:48:15.397Z,15.00
2019-06-01T02:49:20.954Z,16.00
2019-06-01T02:50:26.351Z,17.00
2019-06-01T02:51:29.740Z,14.75
2019-06-01T02:52:32.540Z,17.25
2019-06-01T02:53:37.830Z,17.50
2019-06-01T02:54:40.703Z,17.75
2019-06-01T02:55:44.403Z,16.25
2019-06-01T02:56:51.596Z,15.00
2019-06-01T02:57:55.982Z,16.00
2019-06-01T02:58:58.867Z,16.25
2019-06-01T03:00:02.741Z,14.75
2019-06-01T03:01:06.916Z,14.75
2019-06-01T03:02:14.202Z,15.50
2019-06-01T03:03:15.348Z,17.50
2019-06-01T03:04:18.796Z,18.25
2019-06-01T03:05:22.074Z,16.00
2019-06-01T03:06:25.534Z,13.00
2019-06-01T03:07:28.388Z,16.50
2019-06-01T03:08:32.153Z,15.25
2019-06-01T03:09:34.969Z,15.00
2019-06-01T03:10:38.420Z,17.00
2019-06-01T03:11:41.289Z,14.00
2019-06-01T03:12:47.921Z,16.00
2019-06-01T03:13:50.827Z,15.00
2019-06-01T03:14:54.597Z,18.00
2019-06-01T03:15:58.183Z,14.50
2019-06-01T03:17:02.022Z,14.00
2019-06-01T03:18:05.678Z,13.25
2019-06-01T03:19:09.146Z,13.00
2019-06-01T03:20:11.973Z,15.25
2019-06-01T03:21:16.095Z,18.50
2019-06-01T03:22:19.026Z,13.00
2019-06-01T03:23:22.415Z,15.25
2019-06-01T03:24:26.033Z,13.50
2019-06-01T03:25:29.500Z,13.00
2019-06-01T03:26:32.381Z,14.75
2019-06-01T03:27:36.300Z,14.75
2019-06-01T03:28:39.109Z,16.00
2019-06-01T03:29:42.609Z,13.00
2019-06-01T03:30:46.212Z,14.75
2019-06-01T03:31:49.716Z,15.25
2019-06-01T03:32:52.544Z,15.25
2019-06-01T03:33:56.260Z,14.75
2019-06-01T03:34:59.068Z,16.00
2019-06-01T03:36:02.817Z,16.50
2019-06-01T03:37:07.089Z,15.50
2019-06-01T03:38:11.146Z,12.50
2019-06-01T03:39:14.037Z,11.75
2019-06-01T03:40:23.670Z,14.75
2019-06-01T03:41:23.432Z,13.00
2019-06-01T03:42:27.407Z,14.75
2019-06-01T03:43:30.283Z,14.75
2019-06-01T03:44:33.657Z,14.50
2019-06-01T03:45:39.588Z,17.00
2019-06-01T03:46:43.477Z,15.75
2019-06-01T03:47:46.296Z,13.00
2019-06-01T03:48:52.263Z,16.00
2019-06-01T03:49:55.439Z,16.00
2019-06-01T03:50:58.815Z,16.00
2019-06-01T03:52:02.706Z,11.75
2019-06-01T03:53:06.475Z,13.00
2019-06-01T03:54:10.150Z,16.00
2019-06-01T03:55:13.648Z,14.75
2019-06-01T03:56:19.985Z,12.50
2019-06-01T03:57:23.396Z,15.75
2019-06-01T03:58:26.209Z,15.75
2019-06-01T03:59:29.978Z,15.75
2019-06-01T04:00:32.779Z,13.50
2019-06-01T04:01:36.249Z,16.00
2019-06-01T04:02:39.154Z,16.25
2019-06-01T04:03:42.723Z,13.50
2019-06-01T04:04:45.979Z,13.50
2019-06-01T04:05:52.379Z,15.00
2019-06-01T04:06:55.564Z,15.50
2019-06-01T04:07:59.011Z,16.00
2019-06-01T04:09:01.897Z,14.00
2019-06-01T04:10:09.804Z,13.00
2019-06-01T04:11:12.973Z,16.75
2019-06-01T04:12:16.689Z,15.00
2019-06-01T04:13:19.569Z,13.50
2019-06-01T04:14:22.970Z,16.75
2019-06-01T04:15:25.786Z,14.00
2019-06-01T04:16:29.682Z,14.75
2019-06-01T04:17:34.030Z,17.75
2019-06-01T04:18:38.375Z,16.00
2019-06-01T04:19:41.203Z,15.25
2019-06-01T04:20:44.623Z,15.75
2019-06-01T04:21:47.468Z,16.00
2019-06-01T04:22:50.863Z,16.00
2019-06-01T04:23:54.038Z,18.25
2019-06-01T04:24:57.496Z,14.50
2019-06-01T04:26:00.318Z,16.50
2019-06-01T04:27:04.152Z,13.00
2019-06-01T04:28:10.226Z,14.00
2019-06-01T04:29:13.665Z,15.50
2019-06-01T04:30:17.577Z,14.75
2019-06-01T04:31:22.519Z,14.50
2019-06-01T04:32:25.439Z,14.75
2019-06-01T04:33:39.931Z,16.50
2019-06-01T04:34:42.727Z,16.00
2019-06-01T04:35:46.134Z,13.00
2019-06-01T04:36:49.236Z,13.00
2019-06-01T04:37:52.698Z,13.50
2019-06-01T04:38:55.506Z,13.00
2019-06-01T04:39:58.907Z,15.50
2019-06-01T04:41:01.745Z,16.50
2019-06-01T04:42:05.574Z,13.50
2019-06-01T04:43:12.082Z,13.25
2019-06-01T04:44:18.214Z,14.50
2019-06-01T04:45:20.380Z,13.75
2019-06-01T04:46:24.234Z,14.00
2019-06-01T04:47:27.400Z,16.75
2019-06-01T04:48:31.297Z,18.00
2019-06-01T04:49:34.464Z,17.50
2019-06-01T04:50:37.863Z,18.75
2019-06-01T04:51:41.093Z,17.00
2019-06-01T04:52:44.478Z,16.00
2019-06-01T04:53:47.351Z,15.75
2019-06-01T04:54:50.744Z,20.50
2019-06-01T04:55:53.974Z,19.00
2019-06-01T04:56:57.730Z,22.25
2019-06-01T04:58:00.520Z,20.00
2019-06-01T04:59:04.897Z,18.50
2019-06-01T05:00:15.621Z,20.50
2019-06-01T05:01:13.096Z,27.50
2019-06-01T05:02:16.211Z,20.25
2019-06-01T05:03:20.160Z,19.00
2019-06-01T05:04:23.021Z,20.75
2019-06-01T05:05:26.440Z,19.00
2019-06-01T05:06:29.284Z,18.00
2019-06-01T05:07:32.647Z,20.50
2019-06-01T05:08:35.775Z,27.75
2019-06-01T05:09:39.237Z,25.50
2019-06-01T05:10:42.353Z,21.25
2019-06-01T05:11:45.767Z,23.00
2019-06-01T05:12:48.567Z,22.00
2019-06-01T05:13:52.365Z,19.00
2019-06-01T05:14:55.519Z,19.25
2019-06-01T05:15:58.939Z,20.00
2019-06-01T05:17:01.806Z,18.50
2019-06-01T05:18:05.922Z,20.25
2019-06-01T05:19:10.131Z,19.00
2019-06-01T05:20:14.723Z,24.75
2019-06-01T05:21:21.383Z,26.00
2019-06-01T05:22:27.545Z,20.75
2019-06-01T05:23:30.704Z,22.00
2019-06-01T05:24:34.200Z,21.75
2019-06-01T05:25:37.024Z,20.50
2019-06-01T05:26:40.757Z,23.00
2019-06-01T05:27:44.026Z,23.00
2019-06-01T05:28:49.326Z,26.00
2019-06-01T05:29:53.488Z,25.75
2019-06-01T05:44:01.720Z,23.25
2019-06-01T05:45:05.305Z,23.75
2019-06-01T05:46:08.132Z,22.50
2019-06-01T05:47:12.167Z,22.25
2019-06-01T05:48:24.619Z,24.75
2019-06-01T05:49:20.236Z,25.00
2019-06-01T05:50:23.136Z,22.00
2019-06-01T05:51:26.598Z,21.50
2019-06-01T05:52:31.582Z,21.00
2019-06-01T05:53:36.382Z,20.25
2019-06-01T05:54:40.655Z,23.00
2019-06-01T05:55:48.206Z,25.50
2019-06-01T05:56:51.037Z,21.25
2019-06-01T05:57:54.461Z,22.75
2019-06-01T05:58:57.264Z,26.25
2019-06-01T06:00:00.750Z,26.25
2019-06-01T06:01:03.855Z,30.75
2019-06-01T06:02:07.263Z,33.75
2019-06-01T06:03:14.516Z,29.75
2019-06-01T06:04:15.404Z,35.25
2019-06-01T06:05:18.771Z,34.25
2019-06-01T06:06:22.277Z,27.75
2019-06-01T06:07:25.459Z,30.50
2019-06-01T06:08:28.836Z,29.75
2019-06-01T06:09:31.688Z,28.50
2019-06-01T06:10:35.172Z,31.25
2019-06-01T06:11:37.981Z,35.50
2019-06-01T06:12:41.430Z,34.25
2019-06-01T06:13:44.534Z,33.75
2019-06-01T06:14:47.968Z,33.75
2019-06-01T06:15:50.796Z,38.75
2019-06-01T06:16:54.234Z,30.25
2019-06-01T06:17:57.082Z,32.75
2019-06-01T06:19:00.563Z,31.00
2019-06-01T06:20:03.706Z,31.00
2019-06-01T06:21:07.186Z,31.50
2019-06-01T06:22:10.025Z,29.25
2019-06-01T06:23:14.242Z,30.00
2019-06-01T06:24:18.418Z,23.25
2019-06-01T06:25:21.976Z,29.50
2019-06-01T06:26:25.155Z,26.00
2019-06-01T06:27:28.557Z,23.50
2019-06-01T06:28:31.346Z,22.00
2019-06-01T06:29:37.207Z,24.00
2019-06-01T06:30:42.339Z,21.00
2019-06-01T06:31:47.510Z,25.50
2019-06-01T06:32:53.498Z,19.50
2019-06-01T06:34:04.166Z,21.50
2019-06-01T06:35:07.013Z,21.00
2019-06-01T06:36:10.405Z,22.75
2019-06-01T06:37:13.515Z,22.25
2019-06-01T06:38:17.848Z,18.75
2019-06-01T06:39:21.981Z,24.50
2019-06-01T06:40:25.454Z,19.50
2019-06-01T06:41:28.292Z,21.75
2019-06-01T06:42:32.088Z,19.00
2019-06-01T06:43:37.576Z,18.25
2019-06-01T06:44:41.007Z,18.00
2019-06-01T06:45:47.070Z,17.50
2019-06-01T06:46:50.590Z,19.00
2019-06-01T06:47:53.496Z,17.50
2019-06-01T06:48:57.926Z,17.50
2019-06-01T06:50:04.175Z,18.00
2019-06-01T06:51:09.864Z,18.25
2019-06-01T06:52:12.771Z,16.00
2019-06-01T06:53:25.348Z,16.00
2019-06-01T06:54:21.808Z,21.75
2019-06-01T06:55:26.115Z,16.00
2019-06-01T06:56:29.427Z,20.50
2019-06-01T06:57:34.663Z,17.00
2019-06-01T06:58:37.481Z,16.00
2019-06-01T06:59:45.671Z,15.25
2019-06-01T07:00:51.090Z,16.75
2019-06-01T07:01:56.163Z,19.00
2019-06-01T07:03:02.264Z,14.75
2019-06-01T07:04:12.726Z,17.00
2019-06-01T07:05:10.125Z,14.00
2019-06-01T07:06:13.550Z,15.50
2019-06-01T07:07:18.068Z,20.25
2019-06-01T07:08:21.870Z,17.00
2019-06-01T07:09:26.130Z,16.75
2019-06-01T07:10:30.168Z,15.75
2019-06-01T07:11:32.991Z,17.00
2019-06-01T07:12:36.380Z,16.75
2019-06-01T07:13:39.264Z,16.25
2019-06-01T07:14:43.107Z,18.00
2019-06-01T07:15:48.267Z,19.75
2019-06-01T07:16:51.409Z,19.75
2019-06-01T07:17:54.827Z,15.75
2019-06-01T07:18:58.586Z,16.75
2019-06-01T07:20:04.677Z,13.75
2019-06-01T07:21:08.202Z,15.00
2019-06-01T07:22:11.329Z,16.25
2019-06-01T07:23:15.643Z,15.25
2019-06-01T07:24:19.521Z,17.25
2019-06-01T07:25:23.129Z,18.00
2019-06-01T07:26:26.254Z,14.00
2019-06-01T07:27:29.780Z,15.00
2019-06-01T07:28:33.140Z,20.25
2019-06-01T07:29:36.823Z,14.00
2019-06-01T07:30:49.879Z,15.00
2019-06-01T07:31:44.844Z,15.00
2019-06-01T07:32:50.209Z,18.75
2019-06-01T07:33:53.682Z,16.50
2019-06-01T07:35:00.652Z,15.00
2019-06-01T07:36:01.863Z,11.00
2019-06-01T07:37:04.696Z,12.00
2019-06-01T07:38:08.484Z,13.25
2019-06-01T07:39:11.783Z,16.00
2019-06-01T07:40:17.947Z,17.00
2019-06-01T07:41:21.110Z,15.75
2019-06-01T07:42:25.986Z,17.00
2019-06-01T07:43:29.126Z,16.75
2019-06-01T07:44:33.243Z,13.00
2019-06-01T07:45:36.539Z,14.00
2019-06-01T07:46:41.231Z,12.75
2019-06-01T07:47:47.124Z,12.25
2019-06-01T07:48:50.620Z,12.00
2019-06-01T07:49:53.533Z,14.00
2019-06-01T07:50:59.007Z,14.00
2019-06-01T07:52:12.994Z,13.50
2019-06-01T07:53:11.266Z,11.25
2019-06-01T07:54:20.143Z,12.75
2019-06-01T07:55:19.612Z,11.25
2019-06-01T07:56:26.539Z,11.25
2019-06-01T07:57:33.273Z,11.25
2019-06-01T07:58:37.280Z,12.00
2019-06-01T07:59:43.351Z,12.50
2019-06-01T08:00:48.538Z,11.00
2019-06-01T08:01:52.137Z,12.00
2019-06-01T08:02:56.162Z,11.25
2019-06-01T08:03:59.700Z,11.25
2019-06-01T08:05:02.663Z,12.00
2019-06-01T08:06:06.156Z,13.75
2019-06-01T08:07:09.018Z,15.75
2019-06-01T08:08:14.385Z,12.25
2019-06-01T08:09:17.295Z,11.25
2019-06-01T08:10:21.348Z,13.00
2019-06-01T08:11:29.358Z,9.00
2019-06-01T08:12:31.553Z,18.00
2019-06-01T08:13:35.880Z,15.25
2019-06-01T08:14:39.458Z,14.00
2019-06-01T08:15:42.265Z,14.75
2019-06-01T08:16:45.663Z,13.50
2019-06-01T08:17:48.950Z,14.50
2019-06-01T08:18:57.241Z,12.00
2019-06-01T08:20:02.170Z,13.50
2019-06-01T08:21:09.369Z,11.25
2019-06-01T08:22:12.698Z,12.50
2019-06-01T08:23:17.220Z,13.00
2019-06-01T08:24:26.115Z,10.00
2019-06-01T08:25:32.801Z,10.75
2019-06-01T08:26:36.554Z,13.00
2019-06-01T08:27:40.539Z,11.00
2019-06-01T08:28:46.490Z,11.00
2019-06-01T08:29:57.212Z,10.75
2019-06-01T08:31:01.834Z,11.25
2019-06-01T08:32:08.438Z,13.50
2019-06-01T08:33:26.522Z,9.50
2019-06-01T08:34:29.088Z,10.00
2019-06-01T08:35:34.660Z,11.00
2019-06-01T08:36:38.395Z,12.00
2019-06-01T08:37:41.394Z,12.00
2019-06-01T08:38:46.016Z,11.00
2019-06-01T08:39:48.881Z,10.50
2019-06-01T08:40:52.347Z,11.00
2019-06-01T08:41:57.946Z,14.25
2019-06-01T08:43:04.049Z,9.25
2019-06-01T08:44:06.947Z,10.00
2019-06-01T08:45:10.401Z,14.25
2019-06-01T08:46:16.039Z,10.25
2019-06-01T08:47:21.139Z,11.50
2019-06-01T08:48:27.646Z,12.00
2019-06-01T08:49:32.501Z,11.75
2019-06-01T08:50:36.992Z,10.75
2019-06-01T08:51:40.448Z,11.00
2019-06-01T08:52:43.673Z,9.00
2019-06-01T08:53:47.001Z,9.00
2019-06-01T08:54:50.264Z,10.75
2019-06-01T08:55:53.797Z,10.25
2019-06-01T08:56:56.939Z,9.25
2019-06-01T08:58:00.387Z,9.00
2019-06-01T08:59:05.290Z,10.50
2019-06-01T09:00:09.760Z,10.25
2019-06-01T09:02:38.310Z,8.00
2019-06-01T09:03:46.352Z,8.00
2019-06-01T09:04:46.114Z,7.00
2019-06-01T09:05:48.961Z,6.50
2019-06-01T09:06:54.304Z,7.50
2019-06-01T09:08:00.060Z,8.00
2019-06-01T09:09:03.338Z,8.75
2019-06-01T09:10:06.843Z,11.00
2019-06-01T09:11:10.274Z,8.00
2019-06-01T09:12:18.146Z,8.00
2019-06-01T09:13:29.129Z,8.00
2019-06-01T09:14:31.715Z,9.00
2019-06-01T09:15:35.612Z,9.50
2019-06-01T09:16:41.147Z,8.00
2019-06-01T09:17:44.983Z,6.75
2019-06-01T09:18:47.656Z,5.25
2019-06-01T09:19:51.547Z,7.50
2019-06-01T09:20:55.711Z,9.00
2019-06-01T09:22:00.299Z,8.00
2019-06-01T09:23:04.225Z,6.75
2019-06-01T09:24:08.079Z,8.00
2019-06-01T09:25:12.455Z,8.75
2019-06-01T09:26:16.150Z,8.50
2019-06-01T09:27:18.801Z,7.25
2019-06-01T09:28:23.242Z,6.75
2019-06-01T09:29:32.134Z,8.00
2019-06-01T09:30:40.238Z,7.50
2019-06-01T09:31:47.785Z,7.00
2019-06-01T09:32:51.495Z,8.00
2019-06-01T09:33:54.167Z,8.00
2019-06-01T09:35:04.257Z,7.00
2019-06-01T09:36:10.061Z,8.00
2019-06-01T09:37:13.289Z,8.00
2019-06-01T09:38:20.287Z,8.00
2019-06-01T09:39:29.083Z,7.75
2019-06-01T09:40:35.144Z,8.00
2019-06-01T09:41:38.526Z,8.00
2019-06-01T09:42:41.346Z,5.00
2019-06-01T09:43:46.613Z,6.25
2019-06-01T09:44:53.535Z,7.00
2019-06-01T09:46:04.122Z,8.00
2019-06-01T09:47:07.293Z,7.50
2019-06-01T09:48:10.707Z,8.00
2019-06-01T09:49:13.425Z,9.75
2019-06-01T09:50:16.764Z,7.75
2019-06-01T09:51:19.911Z,6.75
2019-06-01T09:52:23.470Z,8.50
2019-06-01T09:53:27.485Z,8.00
2019-06-01T09:54:32.735Z,8.25
2019-06-01T09:55:36.466Z,8.00
2019-06-01T09:56:49.377Z,7.00
2019-06-01T09:57:52.278Z,5.00
2019-06-01T09:58:58.049Z,8.25
2019-06-01T10:00:00.797Z,7.50
2019-06-01T10:01:05.092Z,9.00
2019-06-01T10:02:13.701Z,9.50
2019-06-01T10:03:19.788Z,8.25
2019-06-01T10:04:22.637Z,6.75
2019-06-01T10:05:26.326Z,9.50
2019-06-01T10:06:28.991Z,8.00
2019-06-01T10:07:32.917Z,7.50
2019-06-01T10:08:36.122Z,8.00
2019-06-01T10:09:39.652Z,8.00
2019-06-01T10:10:42.541Z,7.75
2019-06-01T10:11:46.137Z,9.00
2019-06-01T10:12:51.619Z,6.25
2019-06-01T10:13:54.968Z,8.25
2019-06-01T10:14:57.691Z,6.25
2019-06-01T10:16:02.786Z,9.25
2019-06-01T10:17:07.296Z,8.75
2019-06-01T10:18:14.448Z,7.25
2019-06-01T10:19:17.332Z,8.50
2019-06-01T10:20:21.186Z,9.00
2019-06-01T10:21:23.858Z,6.00
2019-06-01T10:22:30.966Z,10.00
2019-06-01T10:23:34.668Z,7.75
2019-06-01T10:24:41.349Z,6.00
2019-06-01T10:25:44.151Z,6.00
2019-06-01T10:26:48.367Z,7.75
2019-06-01T10:27:59.762Z,6.50
2019-06-01T10:29:03.301Z,9.00
2019-06-01T10:42:48.124Z,8.00
2019-06-01T10:43:52.459Z,7.50
2019-06-01T10:44:55.197Z,7.00
2019-06-01T10:45:58.437Z,7.00
2019-06-01T10:47:03.968Z,5.00
2019-06-01T10:48:07.556Z,6.00
2019-06-01T10:49:13.389Z,7.00
2019-06-01T10:50:17.483Z,7.00
2019-06-01T10:51:20.612Z,8.75
2019-06-01T10:52:23.866Z,6.25
2019-06-01T10:53:29.134Z,8.25
2019-06-01T10:54:38.192Z,6.25
2019-06-01T10:55:42.363Z,6.00
2019-06-01T10:56:49.956Z,6.50
2019-06-01T10:57:52.824Z,7.25
2019-06-01T10:59:03.805Z,7.25
2019-06-01T11:00:06.951Z,5.00
2019-06-01T11:01:10.250Z,6.50
2019-06-01T11:02:15.666Z,6.75
2019-06-01T11:03:19.132Z,7.00
2019-06-01T11:04:23.684Z,10.00
2019-06-01T11:05:27.247Z,6.25
2019-06-01T11:06:40.220Z,7.50
2019-06-01T11:07:36.744Z,10.00
2019-06-01T11:08:41.053Z,8.50
2019-06-01T11:09:44.380Z,8.00
2019-06-01T11:10:47.063Z,8.75
2019-06-01T11:11:50.321Z,9.50
2019-06-01T11:12:53.554Z,6.00
2019-06-01T11:13:56.880Z,8.00
2019-06-01T11:14:59.745Z,5.00
2019-06-01T11:16:03.079Z,6.50
2019-06-01T11:17:06.288Z,6.00
2019-06-01T11:18:10.180Z,7.00
2019-06-01T11:19:13.407Z,6.50
2019-06-01T11:20:22.896Z,7.50
2019-06-01T11:21:28.730Z,7.00
2019-06-01T11:22:43.591Z,5.75
2019-06-01T11:23:49.208Z,6.50
2019-06-01T11:25:13.429Z,6.00
2019-06-01T11:26:28.295Z,5.50
2019-06-01T11:27:37.731Z,7.75
2019-06-01T11:28:44.364Z,7.75
2019-06-01T11:29:51.441Z,8.50
2019-06-01T11:30:52.428Z,10.00
2019-06-01T11:31:56.150Z,14.00
2019-06-01T11:32:59.143Z,12.50
2019-06-01T11:34:02.574Z,11.00
2019-06-01T11:35:05.261Z,6.75
2019-06-01T11:36:08.579Z,7.00
2019-06-01T11:37:15.190Z,6.25
2019-06-01T11:38:16.488Z,7.00
2019-06-01T11:39:19.341Z,6.75
2019-06-01T11:40:22.820Z,6.25
2019-06-01T11:41:25.762Z,6.75
2019-06-01T11:42:48.167Z,6.00
2019-06-01T11:43:51.459Z,7.00
2019-06-01T11:44:55.274Z,7.00
2019-06-01T11:45:58.011Z,6.00
2019-06-01T11:47:01.789Z,7.75
2019-06-01T11:48:04.638Z,7.00
2019-06-01T11:49:07.989Z,6.75
2019-06-01T11:50:10.947Z,6.00
2019-06-01T11:51:14.359Z,6.00
2019-06-01T11:52:17.096Z,6.00
2019-06-01T11:53:20.500Z,9.00
2019-06-01T11:54:23.187Z,6.75
2019-06-01T11:55:29.033Z,8.00
2019-06-01T11:56:32.011Z,6.75
2019-06-01T11:57:35.417Z,7.00
2019-06-01T11:58:48.094Z,7.00
2019-06-01T11:59:51.389Z,8.00
2019-06-01T12:00:54.279Z,13.50
2019-06-01T12:01:57.584Z,9.50
2019-06-01T12:03:03.646Z,7.75
2019-06-01T12:04:16.055Z,7.75
2019-06-01T12:05:18.412Z,7.00
2019-06-01T12:06:24.799Z,6.75
2019-06-01T12:07:31.757Z,7.00
2019-06-01T12:08:38.101Z,7.00
2019-06-01T12:09:46.897Z,7.25
2019-06-01T12:10:50.277Z,6.25
2019-06-01T12:11:53.798Z,7.00
2019-06-01T12:12:57.100Z,7.00
2019-06-01T12:14:01.018Z,7.25
2019-06-01T12:15:04.570Z,6.25
2019-06-01T12:16:07.686Z,6.25
2019-06-01T12:17:11.215Z,6.25
2019-06-01T12:18:15.937Z,7.00
2019-06-01T12:19:19.669Z,8.00
2019-06-01T12:20:25.700Z,7.75
2019-06-01T12:21:32.169Z,8.75
2019-06-01T12:22:35.212Z,6.00
2019-06-01T12:23:41.471Z,7.25
2019-06-01T12:24:47.505Z,6.00
2019-06-01T12:25:52.671Z,7.25
2019-06-01T12:26:58.147Z,7.00
2019-06-01T12:28:01.461Z,7.25
2019-06-01T12:29:06.053Z,7.00
2019-06-01T12:30:09.528Z,9.75
2019-06-01T12:31:14.762Z,8.25
2019-06-01T12:32:19.053Z,9.00
2019-06-01T12:33:22.316Z,7.25
2019-06-01T12:34:25.813Z,6.75
2019-06-01T12:35:30.936Z,9.75
2019-06-01T12:36:38.710Z,8.00
2019-06-01T12:38:21.857Z,7.25
2019-06-01T12:38:54.408Z,9.75
2019-06-01T12:39:57.067Z,7.25
2019-06-01T12:41:00.308Z,7.75
2019-06-01T12:42:03.489Z,8.75
2019-06-01T12:43:11.117Z,9.00
2019-06-01T12:44:15.264Z,9.00
2019-06-01T12:45:23.174Z,8.00
2019-06-01T12:46:26.093Z,8.25
2019-06-01T12:47:29.522Z,8.50
2019-06-01T12:48:32.653Z,9.25
2019-06-01T12:49:37.750Z,8.75
2019-06-01T12:50:46.150Z,8.00
2019-06-01T12:51:50.514Z,7.75
2019-06-01T12:52:55.419Z,7.50
2019-06-01T12:54:00.156Z,7.50
2019-06-01T12:55:05.902Z,9.00
2019-06-01T12:56:11.326Z,8.00
2019-06-01T12:57:14.235Z,9.00
2019-06-01T12:58:21.555Z,8.00
2019-06-01T12:59:26.388Z,8.25
2019-06-01T13:00:31.176Z,7.75
2019-06-01T13:01:41.575Z,10.00
2019-06-01T13:02:56.524Z,7.75
2019-06-01T13:03:54.007Z,8.00
2019-06-01T13:04:57.628Z,8.00
2019-06-01T13:06:00.764Z,7.00
2019-06-01T13:07:04.493Z,7.00
2019-06-01T13:08:07.174Z,6.75
2019-06-01T13:09:13.244Z,8.75
2019-06-01T13:10:15.949Z,7.00
2019-06-01T13:11:19.279Z,8.00
2019-06-01T13:12:22.409Z,6.25
2019-06-01T13:13:27.330Z,6.75
2019-06-01T13:14:33.179Z,6.00
2019-06-01T13:15:38.806Z,6.75
2019-06-01T13:16:43.830Z,7.50
2019-06-01T13:17:47.285Z,9.00
2019-06-01T13:18:51.653Z,7.25
2019-06-01T13:19:55.038Z,7.00
2019-06-01T13:20:58.969Z,9.75
2019-06-01T13:22:05.549Z,8.50
2019-06-01T13:23:08.223Z,6.00
2019-06-01T13:24:15.626Z,7.50
2019-06-01T13:25:20.177Z,9.50
2019-06-01T13:26:23.549Z,9.25
2019-06-01T13:27:26.238Z,7.75
2019-06-01T13:28:38.160Z,6.25
2019-06-01T13:29:34.668Z,8.00
2019-06-01T13:30:38.227Z,6.50
2019-06-01T13:31:44.374Z,8.00
2019-06-01T13:32:48.534Z,8.00
2019-06-01T13:33:53.726Z,7.25
2019-06-01T13:34:57.541Z,7.50
2019-06-01T13:36:00.438Z,7.00
2019-06-01T13:37:06.662Z,6.50
2019-06-01T13:38:14.213Z,5.25
2019-06-01T13:39:18.525Z,6.00
2019-06-01T13:40:30.114Z,5.75
2019-06-01T13:41:36.187Z,5.00
2019-06-01T13:42:38.950Z,5.00
2019-06-01T13:43:45.636Z,7.00
2019-06-01T13:44:49.514Z,5.00
2019-06-01T13:45:55.815Z,8.25
2019-06-01T13:46:58.726Z,5.50
2019-06-01T13:48:02.105Z,5.50
2019-06-01T13:49:05.778Z,7.00
2019-06-01T13:50:09.063Z,7.75
2019-06-01T13:51:21.845Z,8.00
2019-06-01T13:52:25.713Z,6.50
2019-06-01T13:53:28.395Z,6.50
2019-06-01T13:54:39.943Z,5.50
2019-06-01T13:55:44.033Z,7.75
2019-06-01T13:56:46.761Z,9.00
2019-06-01T13:57:53.037Z,6.75
2019-06-01T13:58:57.509Z,5.00
2019-06-01T14:00:00.712Z,7.00
2019-06-01T14:01:04.105Z,5.00
2019-06-01T14:02:10.856Z,6.00
2019-06-01T14:03:14.844Z,6.00
2019-06-01T14:04:19.177Z,4.75
2019-06-01T14:05:23.311Z,6.00
2019-06-01T14:06:47.075Z,5.25
2019-06-01T14:07:49.572Z,5.50
2019-06-01T14:08:56.254Z,6.50
2019-06-01T14:09:59.742Z,5.00
2019-06-01T14:11:05.236Z,6.00
2019-06-01T14:12:09.361Z,6.00
2019-06-01T14:13:12.834Z,5.00
2019-06-01T14:14:17.834Z,4.50
2019-06-01T14:15:21.315Z,6.00
2019-06-01T14:16:27.879Z,5.00
2019-06-01T14:17:31.596Z,5.00
2019-06-01T14:18:36.307Z,6.00
2019-06-01T14:19:40.651Z,5.00
2019-06-01T14:20:43.437Z,5.75
2019-06-01T14:21:47.769Z,6.00
2019-06-01T14:22:51.960Z,5.00
2019-06-01T14:23:58.651Z,5.00
2019-06-01T14:25:12.406Z,5.00
2019-06-01T14:26:08.716Z,4.00
2019-06-01T14:27:15.802Z,6.25